Time;durP1;ratioP1;P1;durP2;ratioP2;P2;SDS_P1;SDS_P2;PMS_P1;PMS_P2;Temp;Humidity;BMP_temperature;BMP_pressure;BME280_temperature;BME280_humidity;BME280_pressure;Samples;Min_cycle;Max_cycle;Signal;HPM_P1;HPM_P2
2023/12/08 00:01:14;;;;;;;8.43;7.85;;;4.20;60.60;;;;;;4974811;28;20215;-79
2023/12/08 00:03:42;;;;;;;7.80;7.10;;;4.20;63.80;;;;;;4978029;28;20226;-79
2023/12/08 00:06:11;;;;;;;7.95;7.35;;;4.20;63.80;;;;;;4976553;28;20216;-79
2023/12/08 00:08:40;;;;;;;7.85;7.25;;;4.20;63.20;;;;;;4978541;28;20234;-79
2023/12/08 00:11:08;;;;;;;8.88;8.25;;;4.10;60.80;;;;;;4979758;28;20720;-80
2023/12/08 00:13:38;;;;;;;9.50;7.10;;;4.10;61.60;;;;;;4980094;28;20212;-79
2023/12/08 00:16:07;;;;;;;8.35;7.20;;;4.10;59.00;;;;;;4977793;28;20206;-79
2023/12/08 00:18:36;;;;;;;7.75;7.18;;;4.10;63.50;;;;;;4971235;28;20220;-79
2023/12/08 00:21:05;;;;;;;7.60;7.00;;;4.10;63.50;;;;;;4973743;28;20307;-78
2023/12/08 00:23:33;;;;;;;7.95;7.40;;;4.10;61.90;;;;;;4974629;28;20220;-79
2023/12/08 00:26:02;;;;;;;8.30;7.70;;;4.10;66.50;;;;;;4972343;28;20210;-80
2023/12/08 00:28:30;;;;;;;7.97;7.38;;;4.10;63.70;;;;;;4974898;28;20282;-79
2023/12/08 00:31:00;;;;;;;8.10;7.60;;;4.10;66.50;;;;;;4976803;28;20315;-79
2023/12/08 00:33:28;;;;;;;7.93;7.25;;;4.10;68.00;;;;;;4975213;28;20211;-79
2023/12/08 00:35:57;;;;;;;9.90;8.90;;;4.00;65.60;;;;;;4974947;28;20231;-79
2023/12/08 00:38:26;;;;;;;8.60;7.90;;;4.10;71.90;;;;;;4973889;28;20228;-79
2023/12/08 00:40:56;;;;;;;8.00;7.40;;;4.10;71.70;;;;;;4975042;28;20250;-78
2023/12/08 00:43:24;;;;;;;9.00;8.20;;;4.10;77.10;;;;;;4973925;28;20477;-78
2023/12/08 00:45:53;;;;;;;7.88;7.28;;;4.10;80.80;;;;;;4979715;28;20206;-78
2023/12/08 00:48:23;;;;;;;8.10;7.30;;;4.10;84.70;;;;;;4973542;28;20810;-79
2023/12/08 00:50:51;;;;;;;7.68;7.07;;;4.10;87.20;;;;;;4973854;28;20208;-79
2023/12/08 00:53:19;;;;;;;7.30;6.80;;;4.10;86.60;;;;;;4967849;28;20230;-79
2023/12/08 00:55:48;;;;;;;8.18;7.65;;;4.10;90.50;;;;;;4972643;28;20211;-80
2023/12/08 00:58:16;;;;;;;8.45;7.80;;;4.10;90.50;;;;;;4965668;28;20221;-78
2023/12/08 01:00:45;;;;;;;8.40;7.60;;;4.10;90.30;;;;;;4967763;28;20216;-79
2023/12/08 01:03:14;;;;;;;9.65;8.43;;;4.10;90.30;;;;;;4975657;28;20944;-80
2023/12/08 01:05:44;;;;;;;7.95;7.35;;;4.00;91.70;;;;;;4981188;28;20323;-77
2023/12/08 01:08:12;;;;;;;8.60;7.90;;;3.90;93.60;;;;;;4973509;28;20229;-79
2023/12/08 01:10:40;;;;;;;7.80;7.15;;;4.00;93.50;;;;;;4971389;28;20343;-78
2023/12/08 01:13:09;;;;;;;8.35;7.78;;;4.00;93.60;;;;;;4972127;28;20270;-78
2023/12/08 01:15:37;;;;;;;7.37;6.87;;;4.10;93.70;;;;;;4976746;28;20262;-77
2023/12/08 01:18:05;;;;;;;8.40;7.80;;;4.10;93.80;;;;;;4975871;28;20597;-79
2023/12/08 01:20:36;;;;;;;7.97;7.47;;;4.10;94.30;;;;;;4975710;28;20894;-79
2023/12/08 01:23:06;;;;;;;7.32;6.78;;;4.20;93.80;;;;;;4974651;28;20455;-79
2023/12/08 01:25:34;;;;;;;8.63;8.05;;;4.20;94.90;;;;;;4974846;28;20231;-79
2023/12/08 01:28:02;;;;;;;9.20;8.40;;;4.20;95.40;;;;;;4975391;28;20231;-79
2023/12/08 01:30:30;;;;;;;8.00;7.43;;;4.20;97.00;;;;;;4981119;28;20283;-80
2023/12/08 01:32:58;;;;;;;8.10;7.50;;;4.10;96.50;;;;;;4981390;28;20223;-79
2023/12/08 01:35:27;;;;;;;7.93;7.50;;;4.20;98.60;;;;;;4982553;28;20200;-79
2023/12/08 01:37:55;;;;;;;8.20;7.50;;;4.20;99.90;;;;;;4977600;28;20490;-80
2023/12/08 01:40:25;;;;;;;8.57;7.88;;;4.20;99.90;;;;;;4980274;28;20294;-81
2023/12/08 01:42:54;;;;;;;8.52;7.72;;;4.20;99.90;;;;;;4978924;28;20227;-81
2023/12/08 01:45:23;;;;;;;13.43;9.95;;;4.20;99.90;;;;;;4974722;28;20282;-80
2023/12/08 01:47:51;;;;;;;8.70;8.10;;;4.30;99.90;;;;;;4978171;28;20261;-80
2023/12/08 01:50:20;;;;;;;12.02;10.10;;;4.30;99.90;;;;;;4976772;28;20203;-79
2023/12/08 01:52:50;;;;;;;12.73;10.57;;;4.20;99.90;;;;;;4973458;28;20203;-80
2023/12/08 01:55:19;;;;;;;12.50;10.77;;;4.20;99.90;;;;;;4978308;28;20210;-80
2023/12/08 01:57:48;;;;;;;23.85;18.30;;;4.20;99.90;;;;;;4973140;28;20250;-81
2023/12/08 02:00:18;;;;;;;13.00;11.60;;;4.20;99.90;;;;;;4973770;28;20291;-80
2023/12/08 02:02:46;;;;;;;14.60;11.50;;;4.20;99.90;;;;;;4977831;28;20579;-80
2023/12/08 02:05:15;;;;;;;9.85;8.95;;;4.20;99.90;;;;;;4975923;28;20230;-80
2023/12/08 02:07:44;;;;;;;8.52;7.82;;;4.20;99.90;;;;;;4973992;28;20228;-79
2023/12/08 02:10:12;;;;;;;8.82;8.02;;;4.20;99.90;;;;;;4978238;28;20231;-80
2023/12/08 02:12:41;;;;;;;9.50;7.75;;;4.20;99.90;;;;;;4977420;28;20203;-81
2023/12/08 02:15:12;;;;;;;8.60;7.90;;;4.20;99.90;;;;;;4973334;28;20216;-81
2023/12/08 02:17:43;;;;;;;8.90;8.10;;;4.20;99.90;;;;;;4975208;28;20227;-80
2023/12/08 02:20:12;;;;;;;8.82;8.02;;;4.30;99.90;;;;;;4987123;28;20734;-80
2023/12/08 02:22:40;;;;;;;9.30;8.50;;;4.20;99.90;;;;;;4971542;28;20327;-80
2023/12/08 02:25:11;;;;;;;8.95;8.25;;;4.20;99.90;;;;;;4973322;28;20811;-80
2023/12/08 02:27:39;;;;;;;8.80;8.18;;;4.30;99.90;;;;;;4976756;28;20271;-80
2023/12/08 02:30:09;;;;;;;8.88;8.25;;;4.30;99.90;;;;;;4983792;28;20262;-80
2023/12/08 02:32:45;;;;;;;8.90;8.05;;;4.30;99.90;;;;;;4982841;28;20276;-79
2023/12/08 02:35:16;;;;;;;8.13;7.53;;;4.30;99.90;;;;;;4983438;28;20222;-80
2023/12/08 02:37:47;;;;;;;8.18;7.68;;;4.30;99.90;;;;;;4974095;28;20227;-80
2023/12/08 02:40:17;;;;;;;8.13;7.53;;;4.40;99.90;;;;;;4974796;28;20196;-80
2023/12/08 02:42:47;;;;;;;7.45;6.95;;;4.30;99.90;;;;;;4974733;28;20195;-80
2023/12/08 02:45:15;;;;;;;8.25;7.65;;;4.30;99.90;;;;;;4975969;28;20208;-80
2023/12/08 02:47:43;;;;;;;8.07;7.43;;;4.30;99.90;;;;;;4973654;28;20270;-80
2023/12/08 02:50:11;;;;;;;7.60;7.10;;;4.30;99.90;;;;;;4968525;28;20287;-79
2023/12/08 02:52:39;;;;;;;7.88;7.22;;;4.30;99.90;;;;;;4968397;28;20216;-79
2023/12/08 02:55:08;;;;;;;9.23;8.43;;;4.30;99.90;;;;;;4969002;28;20630;-79
2023/12/08 02:57:38;;;;;;;6.95;6.45;;;4.30;99.90;;;;;;4971512;28;20236;-79
2023/12/08 03:00:09;;;;;;;6.97;6.50;;;4.30;99.90;;;;;;4968043;28;20230;-79
2023/12/08 03:02:37;;;;;;;7.78;7.22;;;4.40;99.90;;;;;;4965788;28;20638;-80
2023/12/08 03:05:07;;;;;;;7.32;6.82;;;4.30;99.90;;;;;;4971261;28;21045;-79
2023/12/08 03:07:35;;;;;;;8.60;7.90;;;4.30;99.90;;;;;;4969962;28;20227;-79
2023/12/08 03:10:03;;;;;;;7.93;7.32;;;4.40;99.90;;;;;;4968170;28;20888;-79
2023/12/08 03:12:31;;;;;;;8.43;7.72;;;4.40;99.90;;;;;;4970554;28;20200;-80
2023/12/08 03:15:00;;;;;;;6.85;6.45;;;4.40;99.90;;;;;;4969810;28;20196;-79
2023/12/08 03:17:29;;;;;;;8.98;8.27;;;4.30;99.90;;;;;;4972913;28;20261;-79
2023/12/08 03:19:58;;;;;;;8.27;7.70;;;4.40;99.90;;;;;;4967872;28;20216;-80
2023/12/08 03:22:27;;;;;;;7.75;7.03;;;4.30;99.90;;;;;;4970682;28;20464;-80
2023/12/08 03:24:55;;;;;;;8.70;7.90;;;4.30;99.90;;;;;;4973991;28;20203;-80
2023/12/08 03:27:23;;;;;;;8.10;7.50;;;4.30;99.90;;;;;;4972895;28;20276;-80
2023/12/08 03:29:52;;;;;;;7.70;7.13;;;4.40;99.90;;;;;;4978084;28;20203;-80
2023/12/08 03:32:21;;;;;;;8.13;7.57;;;4.30;99.90;;;;;;4972173;28;20195;-81
2023/12/08 03:34:49;;;;;;;8.75;8.13;;;4.30;99.90;;;;;;4984090;28;20199;-80
2023/12/08 03:37:18;;;;;;;8.57;7.60;;;4.30;99.90;;;;;;4973420;28;20301;-80
2023/12/08 03:39:47;;;;;;;7.25;6.75;;;4.30;99.90;;;;;;4977969;28;20203;-80
2023/12/08 03:42:15;;;;;;;7.75;7.15;;;4.30;99.90;;;;;;4971477;28;20227;-79
2023/12/08 03:44:43;;;;;;;9.10;8.43;;;4.30;99.90;;;;;;4975510;28;20204;-80
2023/12/08 03:47:11;;;;;;;7.47;7.07;;;4.30;99.90;;;;;;4972187;28;20247;-79
2023/12/08 03:49:41;;;;;;;8.25;7.55;;;4.30;99.90;;;;;;4968865;28;20230;-79
2023/12/08 03:52:09;;;;;;;7.53;7.03;;;4.40;99.90;;;;;;4977568;28;20834;-79
2023/12/08 03:54:38;;;;;;;7.20;6.60;;;4.30;99.90;;;;;;4979368;28;20218;-80
2023/12/08 03:57:06;;;;;;;7.50;7.03;;;4.30;99.90;;;;;;4979062;28;20520;-80
2023/12/08 03:59:34;;;;;;;8.20;7.50;;;4.30;99.90;;;;;;4977597;28;20207;-80
2023/12/08 04:02:03;;;;;;;8.25;7.72;;;4.40;99.90;;;;;;4973876;28;20264;-79
2023/12/08 04:04:31;;;;;;;8.20;7.57;;;4.30;99.90;;;;;;4979763;28;20263;-80
2023/12/08 04:07:00;;;;;;;7.38;6.78;;;4.40;99.90;;;;;;4977116;28;20229;-80
2023/12/08 04:09:29;;;;;;;7.38;6.97;;;4.40;99.90;;;;;;4980876;28;20303;-81
2023/12/08 04:11:57;;;;;;;7.63;7.13;;;4.40;99.90;;;;;;4978506;28;20203;-80
2023/12/08 04:14:25;;;;;;;7.45;6.75;;;4.40;99.90;;;;;;4975106;28;20756;-81
2023/12/08 04:16:54;;;;;;;7.30;6.80;;;4.40;99.90;;;;;;4974159;28;20690;-81
2023/12/08 04:19:23;;;;;;;7.40;6.90;;;4.40;99.90;;;;;;4973571;28;20224;-81
2023/12/08 04:21:52;;;;;;;7.63;7.13;;;4.50;99.90;;;;;;4971933;28;20208;-81
2023/12/08 04:24:22;;;;;;;7.10;6.60;;;4.50;99.90;;;;;;4975403;28;20203;-81
2023/12/08 04:26:50;;;;;;;7.50;7.07;;;4.60;99.90;;;;;;4972652;28;20211;-79
2023/12/08 04:29:18;;;;;;;6.97;6.57;;;4.60;99.90;;;;;;4978021;28;20492;-80
2023/12/08 04:31:46;;;;;;;7.70;7.30;;;4.60;99.90;;;;;;4977390;28;20220;-80
2023/12/08 04:34:14;;;;;;;7.70;7.25;;;4.70;99.90;;;;;;4980353;28;20765;-79
2023/12/08 04:36:43;;;;;;;7.45;7.15;;;4.70;99.90;;;;;;4972925;28;20207;-79
2023/12/08 04:39:11;;;;;;;8.40;7.90;;;4.70;99.90;;;;;;4975761;28;20236;-79
2023/12/08 04:41:41;;;;;;;7.43;7.13;;;4.60;99.90;;;;;;4972645;28;20215;-79
2023/12/08 04:44:09;;;;;;;7.50;7.10;;;4.70;99.90;;;;;;4976104;28;20203;-80
2023/12/08 04:46:37;;;;;;;8.30;7.72;;;4.70;99.90;;;;;;4976986;28;20215;-79
2023/12/08 04:49:05;;;;;;;8.18;7.68;;;4.80;99.90;;;;;;4983041;28;20219;-79
2023/12/08 04:51:35;;;;;;;7.70;7.38;;;4.80;99.90;;;;;;4984293;28;20211;-79
2023/12/08 04:54:03;;;;;;;8.23;7.82;;;4.80;99.90;;;;;;4980751;28;20327;-78
2023/12/08 04:56:32;;;;;;;8.43;7.93;;;4.90;99.90;;;;;;4978727;28;20203;-79
2023/12/08 04:59:01;;;;;;;8.32;7.85;;;4.90;99.90;;;;;;4972489;28;20591;-78
2023/12/08 05:01:30;;;;;;;8.25;7.85;;;5.00;99.90;;;;;;4974811;28;20196;-79
2023/12/08 05:03:58;;;;;;;8.30;7.90;;;5.00;99.90;;;;;;4976287;28;20223;-78
2023/12/08 05:06:26;;;;;;;8.60;8.05;;;5.00;1.00;;;;;;4976585;28;20322;-79
2023/12/08 05:08:55;;;;;;;9.23;8.70;;;5.10;1.00;;;;;;4979369;28;20228;-80
2023/12/08 05:11:23;;;;;;;9.45;8.95;;;5.10;1.00;;;;;;4980112;28;20259;-80
2023/12/08 05:13:51;;;;;;;9.32;8.82;;;5.10;1.00;;;;;;4977479;28;20192;-81
2023/12/08 05:16:21;;;;;;;8.85;8.25;;;5.10;1.00;;;;;;4975216;28;20227;-80
2023/12/08 05:18:49;;;;;;;9.63;9.00;;;5.20;1.00;;;;;;4980197;28;20212;-86
2023/12/08 05:21:18;;;;;;;9.90;9.38;;;5.20;1.00;;;;;;4981472;28;21944;-86
2023/12/08 05:23:46;;;;;;;10.00;9.40;;;5.10;3.40;;;;;;4981049;28;20194;-80
2023/12/08 05:26:14;;;;;;;9.63;9.13;;;5.10;2.40;;;;;;4973352;28;20220;-80
2023/12/08 05:28:43;;;;;;;10.30;9.50;;;5.10;1.00;;;;;;4972673;28;20313;-80
2023/12/08 05:31:12;;;;;;;9.13;8.63;;;5.00;1.00;;;;;;4973130;28;20204;-80
2023/12/08 05:33:42;;;;;;;10.75;10.05;;;5.00;1.00;;;;;;4971371;28;20197;-80
2023/12/08 05:36:11;;;;;;;11.00;10.25;;;5.10;1.00;;;;;;4979516;28;20787;-79
2023/12/08 05:38:39;;;;;;;11.65;10.98;;;5.00;1.00;;;;;;4975191;28;20231;-79
2023/12/08 05:41:07;;;;;;;10.75;9.95;;;5.00;1.00;;;;;;4975069;28;20714;-79
2023/12/08 05:43:36;;;;;;;11.05;10.35;;;4.90;1.00;;;;;;4973607;28;20742;-81
2023/12/08 05:46:04;;;;;;;10.95;10.18;;;4.90;1.00;;;;;;4976230;28;20230;-80
2023/12/08 05:48:32;;;;;;;10.90;10.10;;;4.80;1.00;;;;;;4973263;28;20224;-80
2023/12/08 05:51:02;;;;;;;10.70;10.10;;;4.90;18.40;;;;;;4978760;28;20200;-81
2023/12/08 05:53:30;;;;;;;10.82;10.00;;;4.80;65.70;;;;;;4973003;28;21097;-78
2023/12/08 05:55:59;;;;;;;10.55;9.95;;;4.80;95.20;;;;;;4967604;28;20204;-78
2023/12/08 05:58:27;;;;;;;11.05;10.25;;;4.80;92.50;;;;;;4967681;28;20224;-78
2023/12/08 06:00:56;;;;;;;11.27;10.70;;;4.90;99.90;;;;;;4968823;28;20212;-78
2023/12/08 06:03:24;;;;;;;10.80;10.30;;;4.80;99.90;;;;;;4973989;28;20216;-79
2023/12/08 06:05:52;;;;;;;9.97;9.37;;;4.90;99.90;;;;;;4970067;28;20895;-78
2023/12/08 06:08:22;;;;;;;9.45;8.95;;;4.90;99.90;;;;;;4973351;28;20483;-79
2023/12/08 06:10:51;;;;;;;10.88;10.02;;;4.90;99.90;;;;;;4968660;28;20219;-79
2023/12/08 06:13:19;;;;;;;10.00;9.40;;;4.90;99.90;;;;;;4973637;28;20231;-79
2023/12/08 06:15:47;;;;;;;10.20;9.50;;;4.90;99.90;;;;;;4975111;28;20299;-79
2023/12/08 06:18:16;;;;;;;10.03;9.30;;;4.90;99.90;;;;;;4984206;28;20236;-79
2023/12/08 06:20:44;;;;;;;10.77;10.10;;;4.80;98.00;;;;;;4971185;28;20476;-79
2023/12/08 06:23:12;;;;;;;10.60;10.03;;;4.80;99.90;;;;;;4971561;28;20207;-79
2023/12/08 06:25:42;;;;;;;11.98;11.27;;;4.80;99.90;;;;;;4974252;28;20467;-80
2023/12/08 06:28:11;;;;;;;12.35;11.35;;;4.80;99.90;;;;;;4974800;28;20232;-78
2023/12/08 06:30:39;;;;;;;11.40;10.55;;;4.80;99.90;;;;;;4973764;28;20211;-79
2023/12/08 06:33:07;;;;;;;9.68;9.18;;;4.80;99.90;;;;;;4975120;28;20211;-79
2023/12/08 06:35:36;;;;;;;10.40;9.70;;;4.80;99.90;;;;;;4974797;28;20246;-78
2023/12/08 06:38:05;;;;;;;10.85;9.80;;;4.80;99.90;;;;;;4972157;28;20223;-79
2023/12/08 06:40:33;;;;;;;9.82;9.05;;;4.80;99.90;;;;;;4973676;28;20789;-79
2023/12/08 06:43:03;;;;;;;10.27;9.60;;;4.80;99.90;;;;;;4966257;28;20207;-79
2023/12/08 06:45:31;;;;;;;10.13;9.63;;;4.80;99.90;;;;;;4972745;28;20231;-79
2023/12/08 06:48:00;;;;;;;11.80;10.90;;;4.80;99.90;;;;;;4967493;28;20470;-79
2023/12/08 06:50:30;;;;;;;11.83;11.03;;;4.80;99.90;;;;;;4972604;28;20324;-79
2023/12/08 06:52:58;;;;;;;10.40;9.90;;;4.80;99.90;;;;;;4966043;28;20908;-79
2023/12/08 06:55:27;;;;;;;9.90;9.40;;;4.90;99.90;;;;;;4971396;28;20200;-78
2023/12/08 06:57:55;;;;;;;9.33;8.93;;;4.90;99.90;;;;;;4970264;28;20507;-79
2023/12/08 07:00:25;;;;;;;9.73;9.10;;;4.90;99.90;;;;;;4974410;28;20474;-79
2023/12/08 07:02:53;;;;;;;9.25;8.75;;;4.90;99.90;;;;;;4977121;28;20548;-79
2023/12/08 07:05:21;;;;;;;9.50;8.98;;;4.90;99.90;;;;;;4980245;28;20200;-79
2023/12/08 07:07:51;;;;;;;10.60;9.85;;;5.00;1.00;;;;;;4972722;28;20223;-79
2023/12/08 07:10:19;;;;;;;11.02;10.13;;;4.90;1.00;;;;;;4977219;28;20269;-79
2023/12/08 07:12:47;;;;;;;13.07;11.73;;;4.90;30.40;;;;;;4978746;28;20199;-78
2023/12/08 07:15:16;;;;;;;12.07;11.35;;;4.90;94.90;;;;;;4976023;28;20978;-78
2023/12/08 07:17:45;;;;;;;11.73;10.70;;;4.90;99.90;;;;;;4967226;28;20208;-78
2023/12/08 07:20:17;;;;;;;12.70;11.50;;;4.90;99.90;;;;;;4973637;28;20314;-78
2023/12/08 07:22:45;;;;;;;10.73;9.93;;;5.00;1.00;;;;;;4974623;28;20688;-78
2023/12/08 07:25:14;;;;;;;11.43;10.57;;;5.00;1.00;;;;;;4979114;28;20230;-78
2023/12/08 07:27:43;;;;;;;12.40;11.50;;;5.00;1.00;;;;;;4967912;28;20231;-78
2023/12/08 07:30:12;;;;;;;10.60;10.00;;;5.00;99.90;;;;;;4974187;28;20541;-78
2023/12/08 07:32:40;;;;;;;11.50;10.73;;;5.10;1.00;;;;;;4974592;28;20916;-79
2023/12/08 07:35:10;;;;;;;11.23;10.52;;;5.10;1.00;;;;;;4972088;28;20450;-79
2023/12/08 07:37:42;;;;;;;11.88;11.10;;;5.10;99.90;;;;;;4976300;28;20535;-79
2023/12/08 07:40:11;;;;;;;10.80;10.20;;;5.20;30.40;;;;;;4973688;28;20195;-79
2023/12/08 07:42:39;;;;;;;11.43;10.43;;;5.10;99.90;;;;;;4975278;28;20203;-79
2023/12/08 07:45:09;;;;;;;11.30;10.80;;;5.20;99.90;;;;;;4973448;28;20451;-79
2023/12/08 07:47:38;;;;;;;11.73;10.87;;;5.20;99.90;;;;;;4969963;28;20235;-78
2023/12/08 07:50:08;;;;;;;11.70;11.10;;;5.20;99.90;;;;;;4977808;28;20465;-79
2023/12/08 07:52:38;;;;;;;12.23;11.53;;;5.20;99.90;;;;;;4976190;28;20203;-78
2023/12/08 07:55:07;;;;;;;14.55;13.45;;;5.30;99.90;;;;;;4978190;28;20495;-79
2023/12/08 07:57:35;;;;;;;12.00;11.37;;;5.30;99.90;;;;;;4975441;28;20223;-78
2023/12/08 08:00:05;;;;;;;12.60;11.90;;;5.30;99.90;;;;;;4974817;28;20466;-79
2023/12/08 08:02:34;;;;;;;12.10;11.50;;;5.20;99.90;;;;;;4975661;28;20625;-79
2023/12/08 08:05:02;;;;;;;13.05;12.13;;;5.30;1.00;;;;;;4972387;28;20559;-78
2023/12/08 08:07:30;;;;;;;12.90;12.20;;;5.30;1.00;;;;;;4975976;28;20204;-78
2023/12/08 08:10:00;;;;;;;12.43;11.63;;;5.40;1.00;;;;;;4976535;28;20470;-79
2023/12/08 08:12:32;;;;;;;13.02;12.25;;;5.40;15.80;;;;;;4977125;28;20458;-78
2023/12/08 08:15:00;;;;;;;12.30;11.70;;;5.30;72.80;;;;;;4977997;28;20282;-78
2023/12/08 08:17:28;;;;;;;14.23;13.27;;;5.30;99.90;;;;;;4973826;28;20494;-78
2023/12/08 08:19:57;;;;;;;13.13;12.43;;;5.40;99.90;;;;;;4970605;28;20442;-78
2023/12/08 08:22:25;;;;;;;14.17;13.30;;;5.30;1.00;;;;;;4972341;28;20216;-78
2023/12/08 08:25:01;;;;;;;13.70;12.90;;;5.40;1.00;;;;;;4978951;28;20455;-79
2023/12/08 08:27:31;;;;;;;12.93;12.25;;;5.40;1.00;;;;;;4974843;28;20216;-78
2023/12/08 08:30:00;;;;;;;13.40;12.52;;;5.40;99.90;;;;;;4989988;28;20243;-79
2023/12/08 08:32:28;;;;;;;13.23;12.50;;;5.40;66.50;;;;;;4978635;28;20213;-78
2023/12/08 08:34:58;;;;;;;14.02;13.15;;;5.50;1.00;;;;;;4981176;28;20236;-77
2023/12/08 08:37:27;;;;;;;13.23;12.63;;;5.50;99.90;;;;;;4977057;28;20216;-78
2023/12/08 08:39:56;;;;;;;13.68;12.88;;;5.60;25.10;;;;;;4978377;28;20200;-78
2023/12/08 08:42:26;;;;;;;13.60;12.90;;;5.60;99.90;;;;;;4976642;28;20646;-78
2023/12/08 08:44:54;;;;;;;15.05;13.95;;;5.60;99.90;;;;;;4976457;28;20309;-78
2023/12/08 08:47:23;;;;;;;13.13;12.23;;;5.60;99.90;;;;;;4975789;28;20232;-78
2023/12/08 08:49:51;;;;;;;14.00;13.20;;;5.60;99.90;;;;;;4975939;28;20478;-79
2023/12/08 08:52:19;;;;;;;14.53;13.70;;;5.60;99.90;;;;;;4977874;28;20518;-79
2023/12/08 08:54:48;;;;;;;14.70;13.77;;;5.60;1.00;;;;;;4976534;28;20916;-79
2023/12/08 08:57:17;;;;;;;14.43;13.43;;;5.70;1.00;;;;;;4977501;28;20871;-78
2023/12/08 08:59:47;;;;;;;14.17;13.37;;;5.70;1.00;;;;;;4978005;28;20470;-78
2023/12/08 09:02:16;;;;;;;14.03;13.40;;;5.70;99.90;;;;;;4978748;28;20462;-78
2023/12/08 09:04:44;;;;;;;16.10;14.97;;;5.80;99.90;;;;;;4976605;28;20456;-79
2023/12/08 09:07:12;;;;;;;14.67;13.77;;;5.80;99.90;;;;;;4975226;28;20454;-78
2023/12/08 09:09:41;;;;;;;15.90;14.90;;;5.90;1.00;;;;;;4976508;28;20566;-79
2023/12/08 09:12:12;;;;;;;14.90;14.00;;;5.80;1.00;;;;;;4976265;28;20542;-78
2023/12/08 09:14:40;;;;;;;15.23;14.20;;;5.80;99.90;;;;;;4975672;28;20957;-79
2023/12/08 09:17:10;;;;;;;14.50;13.70;;;5.90;99.90;;;;;;4976336;28;20463;-78
2023/12/08 09:19:38;;;;;;;14.20;13.40;;;5.90;99.90;;;;;;4972633;28;20636;-79
2023/12/08 09:22:07;;;;;;;14.70;13.75;;;5.90;99.90;;;;;;4978020;28;20451;-79
2023/12/08 09:24:35;;;;;;;14.40;13.70;;;5.90;1.00;;;;;;4975579;28;20200;-78
2023/12/08 09:27:04;;;;;;;14.30;13.50;;;5.90;99.90;;;;;;4977574;28;21169;-78
2023/12/08 09:29:32;;;;;;;12.93;12.33;;;5.90;1.00;;;;;;4974386;28;20223;-79
2023/12/08 09:32:00;;;;;;;13.88;13.27;;;6.00;1.00;;;;;;4974672;28;20474;-79
2023/12/08 09:34:30;;;;;;;14.00;13.20;;;6.00;1.00;;;;;;4975181;28;20203;-79
2023/12/08 09:36:59;;;;;;;13.85;13.07;;;6.00;1.00;;;;;;4975181;28;20451;-78
2023/12/08 09:39:47;;;;;;;14.53;13.73;;;6.10;99.90;;;;;;4975534;28;20200;-78
2023/12/08 09:42:22;;;;;;;13.80;13.10;;;6.00;1.00;;;;;;4977250;28;20460;-79
2023/12/08 09:44:51;;;;;;;14.03;13.33;;;6.00;1.00;;;;;;4977891;28;20215;-79
2023/12/08 09:47:20;;;;;;;15.03;14.30;;;6.00;99.90;;;;;;4974958;28;20456;-79
2023/12/08 09:49:52;;;;;;;14.20;13.57;;;6.00;15.70;;;;;;4973504;28;20510;-79
2023/12/08 09:52:21;;;;;;;14.33;13.60;;;6.00;99.90;;;;;;4977369;28;21280;-79
2023/12/08 09:54:49;;;;;;;15.43;14.63;;;6.10;99.90;;;;;;4981608;28;20470;-82
2023/12/08 09:57:19;;;;;;;14.83;14.13;;;6.10;28.10;;;;;;4986501;28;20478;-81
2023/12/08 09:59:51;;;;;;;15.30;14.40;;;6.10;1.00;;;;;;4985966;28;20453;-81
2023/12/08 10:02:19;;;;;;;15.00;14.20;;;6.20;1.00;;;;;;4984849;28;20957;-81
2023/12/08 10:04:48;;;;;;;16.87;15.87;;;6.20;99.90;;;;;;4982770;28;20551;-80
2023/12/08 10:07:19;;;;;;;15.87;14.77;;;6.20;1.00;;;;;;4984358;28;20513;-82
2023/12/08 10:09:47;;;;;;;14.97;14.20;;;6.20;1.00;;;;;;4984055;28;20525;-83
2023/12/08 10:12:15;;;;;;;15.40;14.70;;;6.30;1.00;;;;;;4983310;28;20447;-82
2023/12/08 10:14:52;;;;;;;15.67;14.83;;;6.30;1.00;;;;;;4983565;28;20489;-82
2023/12/08 10:17:21;;;;;;;16.63;15.70;;;6.40;99.90;;;;;;4985098;28;20439;-80
2023/12/08 10:19:51;;;;;;;15.67;14.70;;;6.40;99.90;;;;;;4990769;28;20487;-83
2023/12/08 10:22:21;;;;;;;16.90;15.87;;;6.40;99.90;;;;;;4986563;28;20454;-81
2023/12/08 10:24:50;;;;;;;15.90;15.10;;;6.40;37.30;;;;;;4981603;28;20440;-81
2023/12/08 10:27:19;;;;;;;15.77;14.97;;;6.40;99.90;;;;;;4979307;28;20550;-79
2023/12/08 10:29:47;;;;;;;16.00;15.20;;;6.50;99.90;;;;;;4974315;28;20569;-79
2023/12/08 10:32:16;;;;;;;17.33;16.43;;;6.50;99.90;;;;;;4975033;28;20459;-79
2023/12/08 10:34:44;;;;;;;16.30;15.37;;;6.50;1.00;;;;;;4971917;28;20985;-79
2023/12/08 10:37:12;;;;;;;14.93;14.30;;;6.50;99.90;;;;;;4977417;28;20478;-79
2023/12/08 10:39:43;;;;;;;14.60;14.00;;;6.50;1.00;;;;;;4977238;28;20605;-79
2023/12/08 10:42:11;;;;;;;15.50;14.80;;;6.50;99.90;;;;;;4979404;28;20534;-79
2023/12/08 10:44:40;;;;;;;15.47;14.77;;;6.40;99.90;;;;;;4982796;28;20522;-79
2023/12/08 10:47:08;;;;;;;15.30;14.50;;;6.50;1.00;;;;;;4974393;28;20463;-79
2023/12/08 10:49:38;;;;;;;15.33;14.33;;;6.50;99.90;;;;;;4971781;28;20561;-79
2023/12/08 10:52:08;;;;;;;14.90;14.23;;;6.40;1.00;;;;;;4977384;28;20452;-79
2023/12/08 10:54:36;;;;;;;15.07;14.27;;;6.50;99.90;;;;;;4975961;28;20556;-79
2023/12/08 10:57:06;;;;;;;13.83;13.23;;;6.60;99.90;;;;;;4990131;28;20463;-80
2023/12/08 10:59:41;;;;;;;14.77;14.13;;;6.50;99.90;;;;;;4974987;28;20466;-79
2023/12/08 11:02:21;;;;;;;15.63;14.50;;;6.50;99.90;;;;;;4974950;28;20490;-79
2023/12/08 11:04:54;;;;;;;14.77;14.00;;;6.60;1.00;;;;;;4972551;28;20454;-79
2023/12/08 11:07:29;;;;;;;13.67;13.07;;;6.70;99.90;;;;;;4978915;28;20462;-79
2023/12/08 11:10:00;;;;;;;13.87;13.30;;;6.70;99.90;;;;;;4977060;28;20878;-79
2023/12/08 11:12:31;;;;;;;14.70;14.10;;;6.70;99.90;;;;;;4975929;28;20471;-79
2023/12/08 11:15:04;;;;;;;14.33;13.63;;;6.60;1.00;;;;;;4973792;28;20527;-79
2023/12/08 11:17:38;;;;;;;13.70;13.10;;;6.50;99.90;;;;;;4973598;28;20799;-78
2023/12/08 11:20:09;;;;;;;15.80;15.10;;;6.60;66.70;;;;;;4972638;28;20466;-79
2023/12/08 11:22:37;;;;;;;15.60;14.90;;;6.60;1.00;;;;;;4975333;28;20459;-80
2023/12/08 11:25:11;;;;;;;15.40;14.80;;;6.60;1.00;;;;;;4973289;28;20467;-79
2023/12/08 11:27:49;;;;;;;13.53;13.00;;;6.50;1.00;;;;;;4974459;28;20478;-80
2023/12/08 11:30:24;;;;;;;14.80;14.10;;;6.70;99.90;;;;;;4974680;28;20914;-80
2023/12/08 11:33:02;;;;;;;13.90;13.37;;;6.60;99.90;;;;;;4977207;28;20827;-79
2023/12/08 11:35:31;;;;;;;13.70;13.10;;;6.60;99.90;;;;;;4975264;28;20596;-79
2023/12/08 11:38:04;;;;;;;14.47;13.97;;;6.60;1.00;;;;;;4974079;28;20913;-79
2023/12/08 11:40:32;;;;;;;13.93;13.37;;;6.70;1.00;;;;;;4989442;28;21211;-79
2023/12/08 11:43:02;;;;;;;14.87;13.93;;;6.60;8.70;;;;;;4975525;28;20490;-79
2023/12/08 11:45:33;;;;;;;14.17;13.57;;;6.70;99.90;;;;;;4971580;28;20490;-78
2023/12/08 11:48:12;;;;;;;15.00;14.40;;;6.60;1.00;;;;;;4977113;28;20541;-79
2023/12/08 11:50:40;;;;;;;14.10;13.50;;;6.70;1.00;;;;;;4976032;28;20980;-79
2023/12/08 11:53:09;;;;;;;14.40;13.77;;;6.70;99.90;;;;;;4981000;28;20873;-79
2023/12/08 11:55:39;;;;;;;14.70;14.20;;;6.70;1.00;;;;;;4977602;28;20557;-79
2023/12/08 11:58:09;;;;;;;14.60;14.00;;;6.80;92.60;;;;;;4976743;28;20483;-79
2023/12/08 12:00:38;;;;;;;14.37;13.77;;;6.90;1.00;;;;;;4973755;28;20582;-80
2023/12/08 12:03:10;;;;;;;14.90;14.30;;;6.90;1.00;;;;;;4977181;28;20451;-79
2023/12/08 12:05:40;;;;;;;14.50;13.90;;;6.90;99.90;;;;;;4971356;28;20526;-79
2023/12/08 12:08:09;;;;;;;15.10;14.50;;;6.90;99.90;;;;;;4973523;28;20478;-78
2023/12/08 12:10:41;;;;;;;14.93;14.43;;;6.90;1.00;;;;;;4974615;28;21027;-79
2023/12/08 12:13:12;;;;;;;14.90;14.40;;;6.90;99.90;;;;;;4975583;28;20964;-79
2023/12/08 12:15:42;;;;;;;15.10;14.50;;;7.00;1.00;;;;;;4975792;28;20889;-79
2023/12/08 12:18:13;;;;;;;14.50;14.00;;;7.00;1.00;;;;;;4978163;28;20572;-78
2023/12/08 12:20:42;;;;;;;14.57;14.03;;;7.00;1.00;;;;;;4976182;28;20578;-79
2023/12/08 12:23:13;;;;;;;14.87;14.37;;;7.10;99.90;;;;;;4979369;28;20462;-79
2023/12/08 12:25:42;;;;;;;14.60;14.00;;;7.10;99.90;;;;;;4977722;28;20454;-78
2023/12/08 12:28:12;;;;;;;14.97;14.47;;;7.10;67.60;;;;;;4976250;28;20478;-78
2023/12/08 12:30:41;;;;;;;15.30;14.70;;;7.10;1.00;;;;;;4975126;28;20483;-79
2023/12/08 12:33:09;;;;;;;15.00;14.50;;;7.10;1.00;;;;;;4979951;28;20455;-79
2023/12/08 12:35:37;;;;;;;15.20;14.70;;;7.10;99.90;;;;;;4978860;28;20468;-79
2023/12/08 12:38:19;;;;;;;15.47;14.77;;;7.10;99.90;;;;;;4974569;28;20478;-78
2023/12/08 12:40:47;;;;;;;15.53;14.73;;;7.10;1.00;;;;;;4979152;28;20482;-79
2023/12/08 12:43:18;;;;;;;15.47;14.97;;;7.10;99.90;;;;;;4978289;28;20455;-79
2023/12/08 12:45:47;;;;;;;14.50;14.10;;;7.10;1.00;;;;;;4978156;28;20451;-79
2023/12/08 12:48:16;;;;;;;15.00;14.50;;;7.20;38.10;;;;;;4979628;28;20479;-79
2023/12/08 12:50:49;;;;;;;14.70;14.20;;;7.10;99.90;;;;;;4981299;28;20466;-79
2023/12/08 12:53:17;;;;;;;15.37;14.87;;;7.10;99.90;;;;;;4978709;28;21026;-78
2023/12/08 12:55:46;;;;;;;15.20;14.70;;;7.10;99.90;;;;;;4971950;28;20458;-79
2023/12/08 12:58:23;;;;;;;15.70;15.10;;;7.10;99.90;;;;;;4971299;28;20511;-78